sensor_id;sensor_type;location;lat;lon;timestamp;temperature;humidity
11647;DHT22;5880;52.342;9.662;2023-12-04T00:01:25;2.30;75.00
11647;DHT22;5880;52.342;9.662;2023-12-04T00:03:51;2.30;74.90
11647;DHT22;5880;52.342;9.662;2023-12-04T00:06:18;2.30;74.70
11647;DHT22;5880;52.342;9.662;2023-12-04T00:08:43;2.30;74.80
11647;DHT22;5880;52.342;9.662;2023-12-04T00:11:09;2.30;74.70
11647;DHT22;5880;52.342;9.662;2023-12-04T00:13:35;2.30;74.90
11647;DHT22;5880;52.342;9.662;2023-12-04T00:16:00;2.40;75.00
11647;DHT22;5880;52.342;9.662;2023-12-04T00:18:26;2.30;74.90
11647;DHT22;5880;52.342;9.662;2023-12-04T00:20:52;2.40;75.00
11647;DHT22;5880;52.342;9.662;2023-12-04T00:23:17;2.40;75.10
11647;DHT22;5880;52.342;9.662;2023-12-04T00:25:43;2.40;75.30
11647;DHT22;5880;52.342;9.662;2023-12-04T00:28:09;2.40;75.20
11647;DHT22;5880;52.342;9.662;2023-12-04T00:30:34;2.40;75.50
11647;DHT22;5880;52.342;9.662;2023-12-04T00:33:00;2.50;75.50
11647;DHT22;5880;52.342;9.662;2023-12-04T00:35:26;2.50;75.50
11647;DHT22;5880;52.342;9.662;2023-12-04T00:37:51;2.50;75.40
11647;DHT22;5880;52.342;9.662;2023-12-04T00:40:17;2.50;75.10
11647;DHT22;5880;52.342;9.662;2023-12-04T00:42:43;2.50;75.10
11647;DHT22;5880;52.342;9.662;2023-12-04T00:45:09;3.60;75.80
11647;DHT22;5880;52.342;9.662;2023-12-04T00:47:34;2.20;74.70
11647;DHT22;5880;52.342;9.662;2023-12-04T00:50:00;2.50;75.10
11647;DHT22;5880;52.342;9.662;2023-12-04T00:52:25;3.30;75.60
11647;DHT22;5880;52.342;9.662;2023-12-04T00:54:51;2.50;75.20
11647;DHT22;5880;52.342;9.662;2023-12-04T00:57:17;2.50;75.10
11647;DHT22;5880;52.342;9.662;2023-12-04T00:59:42;2.50;75.10
11647;DHT22;5880;52.342;9.662;2023-12-04T01:02:08;2.50;75.10
11647;DHT22;5880;52.342;9.662;2023-12-04T01:04:34;2.50;75.00
11647;DHT22;5880;52.342;9.662;2023-12-04T01:06:59;2.50;75.10
11647;DHT22;5880;52.342;9.662;2023-12-04T01:09:25;2.50;75.10
11647;DHT22;5880;52.342;9.662;2023-12-04T01:11:54;2.50;74.90
11647;DHT22;5880;52.342;9.662;2023-12-04T01:14:20;2.50;75.00
11647;DHT22;5880;52.342;9.662;2023-12-04T01:16:46;2.50;75.10
11647;DHT22;5880;52.342;9.662;2023-12-04T01:19:12;2.40;74.80
11647;DHT22;5880;52.342;9.662;2023-12-04T01:21:38;2.50;75.00
11647;DHT22;5880;52.342;9.662;2023-12-04T01:24:04;2.50;75.10
11647;DHT22;5880;52.342;9.662;2023-12-04T01:26:30;2.50;75.10
11647;DHT22;5880;52.342;9.662;2023-12-04T01:28:56;2.50;75.20
11647;DHT22;5880;52.342;9.662;2023-12-04T01:31:21;2.50;75.00
11647;DHT22;5880;52.342;9.662;2023-12-04T01:33:47;2.50;75.10
11647;DHT22;5880;52.342;9.662;2023-12-04T01:36:13;2.50;75.20
11647;DHT22;5880;52.342;9.662;2023-12-04T01:38:39;2.40;75.20
11647;DHT22;5880;52.342;9.662;2023-12-04T01:41:05;2.40;75.20
11647;DHT22;5880;52.342;9.662;2023-12-04T01:43:31;2.50;75.30
11647;DHT22;5880;52.342;9.662;2023-12-04T01:45:57;2.40;75.10
11647;DHT22;5880;52.342;9.662;2023-12-04T01:48:26;2.40;75.60
11647;DHT22;5880;52.342;9.662;2023-12-04T01:50:52;2.40;75.70
11647;DHT22;5880;52.342;9.662;2023-12-04T01:53:18;2.40;75.80
11647;DHT22;5880;52.342;9.662;2023-12-04T01:55:45;2.40;75.80
11647;DHT22;5880;52.342;9.662;2023-12-04T01:58:11;2.40;75.40
11647;DHT22;5880;52.342;9.662;2023-12-04T02:00:37;2.40;75.70
11647;DHT22;5880;52.342;9.662;2023-12-04T02:03:03;2.40;75.40
11647;DHT22;5880;52.342;9.662;2023-12-04T02:05:29;2.40;75.70
11647;DHT22;5880;52.342;9.662;2023-12-04T02:07:56;2.50;76.00
11647;DHT22;5880;52.342;9.662;2023-12-04T02:10:22;2.50;76.20
11647;DHT22;5880;52.342;9.662;2023-12-04T02:12:49;2.50;76.10
11647;DHT22;5880;52.342;9.662;2023-12-04T02:15:15;2.50;76.00
11647;DHT22;5880;52.342;9.662;2023-12-04T02:17:43;2.50;75.90
11647;DHT22;5880;52.342;9.662;2023-12-04T02:20:12;2.50;76.00
11647;DHT22;5880;52.342;9.662;2023-12-04T02:22:38;2.40;75.90
11647;DHT22;5880;52.342;9.662;2023-12-04T02:25:04;2.50;75.90
11647;DHT22;5880;52.342;9.662;2023-12-04T02:27:42;2.50;75.90
11647;DHT22;5880;52.342;9.662;2023-12-04T02:30:12;2.40;75.60
11647;DHT22;5880;52.342;9.662;2023-12-04T02:32:45;2.50;76.10
11647;DHT22;5880;52.342;9.662;2023-12-04T02:35:14;2.50;77.10
11647;DHT22;5880;52.342;9.662;2023-12-04T02:37:41;2.50;76.90
11647;DHT22;5880;52.342;9.662;2023-12-04T02:40:08;2.50;76.30
11647;DHT22;5880;52.342;9.662;2023-12-04T02:42:35;2.50;76.40
11647;DHT22;5880;52.342;9.662;2023-12-04T02:45:01;2.50;76.30
11647;DHT22;5880;52.342;9.662;2023-12-04T02:47:27;2.50;76.20
11647;DHT22;5880;52.342;9.662;2023-12-04T02:49:52;2.50;76.10
11647;DHT22;5880;52.342;9.662;2023-12-04T02:52:18;2.50;76.10
11647;DHT22;5880;52.342;9.662;2023-12-04T02:54:44;2.60;76.20
11647;DHT22;5880;52.342;9.662;2023-12-04T02:57:09;2.60;76.10
11647;DHT22;5880;52.342;9.662;2023-12-04T02:59:35;2.60;76.00
11647;DHT22;5880;52.342;9.662;2023-12-04T03:02:01;2.60;76.20
11647;DHT22;5880;52.342;9.662;2023-12-04T03:04:28;2.60;76.00
11647;DHT22;5880;52.342;9.662;2023-12-04T03:06:55;2.60;75.90
11647;DHT22;5880;52.342;9.662;2023-12-04T03:09:21;2.60;75.80
11647;DHT22;5880;52.342;9.662;2023-12-04T03:11:46;2.60;75.90
11647;DHT22;5880;52.342;9.662;2023-12-04T03:14:12;2.70;75.90
11647;DHT22;5880;52.342;9.662;2023-12-04T03:16:38;2.60;75.80
11647;DHT22;5880;52.342;9.662;2023-12-04T03:19:03;2.60;75.40
11647;DHT22;5880;52.342;9.662;2023-12-04T03:21:29;2.70;75.60
11647;DHT22;5880;52.342;9.662;2023-12-04T03:23:55;2.70;75.80
11647;DHT22;5880;52.342;9.662;2023-12-04T03:26:20;2.70;75.80
11647;DHT22;5880;52.342;9.662;2023-12-04T03:28:46;2.70;75.70
11647;DHT22;5880;52.342;9.662;2023-12-04T03:31:12;2.60;75.50
11647;DHT22;5880;52.342;9.662;2023-12-04T03:33:37;2.70;75.80
11647;DHT22;5880;52.342;9.662;2023-12-04T03:36:03;2.70;76.00
11647;DHT22;5880;52.342;9.662;2023-12-04T03:38:29;2.70;75.90
11647;DHT22;5880;52.342;9.662;2023-12-04T03:40:55;2.70;75.60
11647;DHT22;5880;52.342;9.662;2023-12-04T03:43:20;2.70;75.70
11647;DHT22;5880;52.342;9.662;2023-12-04T03:45:46;2.70;75.60
11647;DHT22;5880;52.342;9.662;2023-12-04T03:48:12;2.70;75.70
11647;DHT22;5880;52.342;9.662;2023-12-04T03:50:37;2.70;75.70
11647;DHT22;5880;52.342;9.662;2023-12-04T03:53:03;2.80;75.70
11647;DHT22;5880;52.342;9.662;2023-12-04T03:55:29;2.80;75.60
11647;DHT22;5880;52.342;9.662;2023-12-04T03:57:56;2.70;75.40
11647;DHT22;5880;52.342;9.662;2023-12-04T04:00:22;2.80;75.00
11647;DHT22;5880;52.342;9.662;2023-12-04T04:02:48;2.80;75.50
11647;DHT22;5880;52.342;9.662;2023-12-04T04:05:14;2.80;75.60
11647;DHT22;5880;52.342;9.662;2023-12-04T04:07:40;2.80;75.50
11647;DHT22;5880;52.342;9.662;2023-12-04T04:10:07;2.80;75.50
11647;DHT22;5880;52.342;9.662;2023-12-04T04:12:33;2.80;75.40
11647;DHT22;5880;52.342;9.662;2023-12-04T04:14:59;2.80;75.40
11647;DHT22;5880;52.342;9.662;2023-12-04T04:17:24;2.90;75.60
11647;DHT22;5880;52.342;9.662;2023-12-04T04:19:53;2.90;75.70
11647;DHT22;5880;52.342;9.662;2023-12-04T04:22:20;2.90;75.50
11647;DHT22;5880;52.342;9.662;2023-12-04T04:24:47;2.90;75.50
11647;DHT22;5880;52.342;9.662;2023-12-04T04:27:13;3.00;75.40
11647;DHT22;5880;52.342;9.662;2023-12-04T04:29:39;2.90;75.20
11647;DHT22;5880;52.342;9.662;2023-12-04T04:32:05;2.90;75.00
11647;DHT22;5880;52.342;9.662;2023-12-04T04:34:31;3.00;75.00
11647;DHT22;5880;52.342;9.662;2023-12-04T04:36:57;3.00;74.90
11647;DHT22;5880;52.342;9.662;2023-12-04T04:39:22;3.00;75.00
11647;DHT22;5880;52.342;9.662;2023-12-04T04:41:48;3.00;74.90
11647;DHT22;5880;52.342;9.662;2023-12-04T04:44:14;3.00;74.80
11647;DHT22;5880;52.342;9.662;2023-12-04T04:46:39;3.00;75.00
11647;DHT22;5880;52.342;9.662;2023-12-04T04:49:05;3.00;74.10
11647;DHT22;5880;52.342;9.662;2023-12-04T04:51:34;3.00;74.30
11647;DHT22;5880;52.342;9.662;2023-12-04T04:54:00;3.10;74.50
11647;DHT22;5880;52.342;9.662;2023-12-04T04:56:26;3.00;74.70
11647;DHT22;5880;52.342;9.662;2023-12-04T04:58:52;3.00;74.70
11647;DHT22;5880;52.342;9.662;2023-12-04T05:01:18;3.00;74.70
11647;DHT22;5880;52.342;9.662;2023-12-04T05:03:44;3.00;74.50
11647;DHT22;5880;52.342;9.662;2023-12-04T05:06:10;3.10;74.40
11647;DHT22;5880;52.342;9.662;2023-12-04T05:08:35;3.00;74.60
11647;DHT22;5880;52.342;9.662;2023-12-04T05:11:01;3.10;74.60
11647;DHT22;5880;52.342;9.662;2023-12-04T05:13:26;3.40;74.50
11647;DHT22;5880;52.342;9.662;2023-12-04T05:15:52;3.10;74.50
11647;DHT22;5880;52.342;9.662;2023-12-04T05:18:18;3.10;74.50
11647;DHT22;5880;52.342;9.662;2023-12-04T05:20:43;3.10;74.30
11647;DHT22;5880;52.342;9.662;2023-12-04T05:23:09;3.10;74.60
11647;DHT22;5880;52.342;9.662;2023-12-04T05:25:35;3.10;74.50
11647;DHT22;5880;52.342;9.662;2023-12-04T05:28:00;3.10;74.50
11647;DHT22;5880;52.342;9.662;2023-12-04T05:30:26;3.10;74.70
11647;DHT22;5880;52.342;9.662;2023-12-04T05:32:52;3.10;74.50
11647;DHT22;5880;52.342;9.662;2023-12-04T05:35:17;3.10;74.70
11647;DHT22;5880;52.342;9.662;2023-12-04T05:37:43;3.10;74.50
11647;DHT22;5880;52.342;9.662;2023-12-04T05:40:10;3.10;74.20
11647;DHT22;5880;52.342;9.662;2023-12-04T05:42:36;3.10;74.30
11647;DHT22;5880;52.342;9.662;2023-12-04T05:45:02;3.20;74.70
11647;DHT22;5880;52.342;9.662;2023-12-04T05:47:28;3.20;74.70
11647;DHT22;5880;52.342;9.662;2023-12-04T05:49:54;3.20;74.50
11647;DHT22;5880;52.342;9.662;2023-12-04T05:52:20;3.20;74.40
11647;DHT22;5880;52.342;9.662;2023-12-04T05:54:46;3.20;74.30
11647;DHT22;5880;52.342;9.662;2023-12-04T05:57:12;3.20;74.20
11647;DHT22;5880;52.342;9.662;2023-12-04T05:59:37;3.20;74.20
11647;DHT22;5880;52.342;9.662;2023-12-04T06:02:03;3.20;74.40
11647;DHT22;5880;52.342;9.662;2023-12-04T06:04:29;3.20;74.30
11647;DHT22;5880;52.342;9.662;2023-12-04T06:06:54;3.20;74.50
11647;DHT22;5880;52.342;9.662;2023-12-04T06:09:20;3.20;73.70
11647;DHT22;5880;52.342;9.662;2023-12-04T06:11:46;3.20;74.20
11647;DHT22;5880;52.342;9.662;2023-12-04T06:14:11;3.20;74.30
11647;DHT22;5880;52.342;9.662;2023-12-04T06:16:37;3.20;74.10
11647;DHT22;5880;52.342;9.662;2023-12-04T06:19:03;3.20;74.20
11647;DHT22;5880;52.342;9.662;2023-12-04T06:21:31;3.20;74.50
11647;DHT22;5880;52.342;9.662;2023-12-04T06:23:58;3.20;74.50
11647;DHT22;5880;52.342;9.662;2023-12-04T06:26:24;3.20;74.70
11647;DHT22;5880;52.342;9.662;2023-12-04T06:28:50;3.20;74.50
11647;DHT22;5880;52.342;9.662;2023-12-04T06:31:16;3.20;74.40
11647;DHT22;5880;52.342;9.662;2023-12-04T06:33:42;3.20;74.50
11647;DHT22;5880;52.342;9.662;2023-12-04T06:36:09;3.20;74.50
11647;DHT22;5880;52.342;9.662;2023-12-04T06:38:40;3.20;74.60
11647;DHT22;5880;52.342;9.662;2023-12-04T06:41:07;3.20;74.50
11647;DHT22;5880;52.342;9.662;2023-12-04T06:43:33;3.20;74.30
11647;DHT22;5880;52.342;9.662;2023-12-04T06:45:59;3.20;74.20
11647;DHT22;5880;52.342;9.662;2023-12-04T06:48:25;3.20;74.40
11647;DHT22;5880;52.342;9.662;2023-12-04T06:50:51;3.20;74.50
11647;DHT22;5880;52.342;9.662;2023-12-04T06:53:17;3.20;74.40
11647;DHT22;5880;52.342;9.662;2023-12-04T06:55:43;3.20;74.10
11647;DHT22;5880;52.342;9.662;2023-12-04T06:58:09;3.20;73.80
11647;DHT22;5880;52.342;9.662;2023-12-04T07:00:35;3.20;74.20
11647;DHT22;5880;52.342;9.662;2023-12-04T07:03:00;3.20;74.50
11647;DHT22;5880;52.342;9.662;2023-12-04T07:05:26;3.30;74.00
11647;DHT22;5880;52.342;9.662;2023-12-04T07:07:52;3.20;74.20
11647;DHT22;5880;52.342;9.662;2023-12-04T07:10:18;3.30;74.20
11647;DHT22;5880;52.342;9.662;2023-12-04T07:12:44;3.20;74.10
11647;DHT22;5880;52.342;9.662;2023-12-04T07:15:11;3.30;74.20
11647;DHT22;5880;52.342;9.662;2023-12-04T07:17:38;3.30;75.00
11647;DHT22;5880;52.342;9.662;2023-12-04T07:20:05;3.20;74.20
11647;DHT22;5880;52.342;9.662;2023-12-04T07:22:34;3.30;74.20
11647;DHT22;5880;52.342;9.662;2023-12-04T07:25:00;3.30;74.30
11647;DHT22;5880;52.342;9.662;2023-12-04T07:27:25;3.30;74.40
11647;DHT22;5880;52.342;9.662;2023-12-04T07:29:51;3.30;74.00
11647;DHT22;5880;52.342;9.662;2023-12-04T07:32:17;3.30;74.90
11647;DHT22;5880;52.342;9.662;2023-12-04T07:34:45;3.30;74.10
11647;DHT22;5880;52.342;9.662;2023-12-04T07:37:11;3.30;74.20
11647;DHT22;5880;52.342;9.662;2023-12-04T07:39:37;3.30;74.90
11647;DHT22;5880;52.342;9.662;2023-12-04T07:42:03;3.20;74.00
11647;DHT22;5880;52.342;9.662;2023-12-04T07:44:28;3.20;74.00
11647;DHT22;5880;52.342;9.662;2023-12-04T07:46:54;3.30;74.30
11647;DHT22;5880;52.342;9.662;2023-12-04T07:49:20;3.30;74.30
11647;DHT22;5880;52.342;9.662;2023-12-04T07:51:45;3.30;74.40
11647;DHT22;5880;52.342;9.662;2023-12-04T07:54:11;3.30;74.20
11647;DHT22;5880;52.342;9.662;2023-12-04T07:56:36;3.30;73.80
11647;DHT22;5880;52.342;9.662;2023-12-04T07:59:02;3.30;74.00
11647;DHT22;5880;52.342;9.662;2023-12-04T08:01:28;3.30;74.40
11647;DHT22;5880;52.342;9.662;2023-12-04T08:03:53;3.30;74.60
11647;DHT22;5880;52.342;9.662;2023-12-04T08:06:19;3.30;74.60
11647;DHT22;5880;52.342;9.662;2023-12-04T08:08:45;3.30;74.20
11647;DHT22;5880;52.342;9.662;2023-12-04T08:11:11;3.40;74.20
11647;DHT22;5880;52.342;9.662;2023-12-04T08:13:38;3.30;73.30
11647;DHT22;5880;52.342;9.662;2023-12-04T08:16:04;3.30;73.80
11647;DHT22;5880;52.342;9.662;2023-12-04T08:18:37;3.30;74.00
11647;DHT22;5880;52.342;9.662;2023-12-04T08:21:03;3.30;74.00
11647;DHT22;5880;52.342;9.662;2023-12-04T08:23:29;3.30;73.40
11647;DHT22;5880;52.342;9.662;2023-12-04T08:25:54;3.20;73.90
11647;DHT22;5880;52.342;9.662;2023-12-04T08:28:20;3.20;74.10
11647;DHT22;5880;52.342;9.662;2023-12-04T08:30:46;3.20;74.00
11647;DHT22;5880;52.342;9.662;2023-12-04T08:33:12;3.20;73.60
11647;DHT22;5880;52.342;9.662;2023-12-04T08:35:38;3.20;73.80
11647;DHT22;5880;52.342;9.662;2023-12-04T08:38:04;3.20;73.70
11647;DHT22;5880;52.342;9.662;2023-12-04T08:40:29;3.10;74.00
11647;DHT22;5880;52.342;9.662;2023-12-04T08:42:55;3.20;74.20
11647;DHT22;5880;52.342;9.662;2023-12-04T08:45:21;3.70;74.50
11647;DHT22;5880;52.342;9.662;2023-12-04T08:47:46;3.20;74.30
11647;DHT22;5880;52.342;9.662;2023-12-04T08:50:12;3.20;74.50
11647;DHT22;5880;52.342;9.662;2023-12-04T08:52:38;3.20;74.40
11647;DHT22;5880;52.342;9.662;2023-12-04T08:55:07;3.20;74.70
11647;DHT22;5880;52.342;9.662;2023-12-04T08:57:32;3.20;74.60
11647;DHT22;5880;52.342;9.662;2023-12-04T08:59:58;3.30;74.60
11647;DHT22;5880;52.342;9.662;2023-12-04T09:02:24;3.30;74.80
11647;DHT22;5880;52.342;9.662;2023-12-04T09:04:49;3.30;74.80
11647;DHT22;5880;52.342;9.662;2023-12-04T09:07:15;3.40;74.60
11647;DHT22;5880;52.342;9.662;2023-12-04T09:09:41;3.40;74.70
11647;DHT22;5880;52.342;9.662;2023-12-04T09:12:07;3.40;74.20
11647;DHT22;5880;52.342;9.662;2023-12-04T09:14:34;3.40;74.10
11647;DHT22;5880;52.342;9.662;2023-12-04T09:17:00;3.40;73.80
11647;DHT22;5880;52.342;9.662;2023-12-04T09:19:25;3.40;74.30
11647;DHT22;5880;52.342;9.662;2023-12-04T09:21:51;3.50;73.70
11647;DHT22;5880;52.342;9.662;2023-12-04T09:24:17;3.50;73.90
11647;DHT22;5880;52.342;9.662;2023-12-04T09:26:42;3.50;74.30
11647;DHT22;5880;52.342;9.662;2023-12-04T09:29:10;3.50;74.00
11647;DHT22;5880;52.342;9.662;2023-12-04T09:31:36;3.60;74.30
11647;DHT22;5880;52.342;9.662;2023-12-04T09:34:02;3.60;74.00
11647;DHT22;5880;52.342;9.662;2023-12-04T09:36:28;3.60;73.90
11647;DHT22;5880;52.342;9.662;2023-12-04T09:38:53;3.60;74.00
11647;DHT22;5880;52.342;9.662;2023-12-04T09:41:20;3.60;73.80
11647;DHT22;5880;52.342;9.662;2023-12-04T09:43:47;3.70;74.20
11647;DHT22;5880;52.342;9.662;2023-12-04T09:46:13;3.70;73.60
11647;DHT22;5880;52.342;9.662;2023-12-04T09:48:41;3.70;74.40
11647;DHT22;5880;52.342;9.662;2023-12-04T09:51:09;3.70;74.40
11647;DHT22;5880;52.342;9.662;2023-12-04T09:53:35;3.70;73.90
11647;DHT22;5880;52.342;9.662;2023-12-04T09:56:07;3.80;74.20
11647;DHT22;5880;52.342;9.662;2023-12-04T09:58:36;3.80;74.10
11647;DHT22;5880;52.342;9.662;2023-12-04T10:01:06;3.80;73.70
11647;DHT22;5880;52.342;9.662;2023-12-04T10:03:34;3.80;73.80
11647;DHT22;5880;52.342;9.662;2023-12-04T10:06:01;4.00;74.10
11647;DHT22;5880;52.342;9.662;2023-12-04T10:08:27;3.90;72.50
11647;DHT22;5880;52.342;9.662;2023-12-04T10:10:53;3.90;73.90
11647;DHT22;5880;52.342;9.662;2023-12-04T10:13:19;4.00;73.20
11647;DHT22;5880;52.342;9.662;2023-12-04T10:15:49;4.00;73.80
11647;DHT22;5880;52.342;9.662;2023-12-04T10:18:29;4.00;73.80
11647;DHT22;5880;52.342;9.662;2023-12-04T10:20:58;4.00;72.60
11647;DHT22;5880;52.342;9.662;2023-12-04T10:23:38;4.20;73.80
11647;DHT22;5880;52.342;9.662;2023-12-04T10:26:05;4.10;72.60
11647;DHT22;5880;52.342;9.662;2023-12-04T10:28:32;4.10;71.70
11647;DHT22;5880;52.342;9.662;2023-12-04T10:30:58;4.10;73.00
11647;DHT22;5880;52.342;9.662;2023-12-04T10:33:25;4.20;73.00
11647;DHT22;5880;52.342;9.662;2023-12-04T10:35:53;4.20;71.90
11647;DHT22;5880;52.342;9.662;2023-12-04T10:38:20;4.20;73.70
11647;DHT22;5880;52.342;9.662;2023-12-04T10:40:46;4.20;73.40
11647;DHT22;5880;52.342;9.662;2023-12-04T10:43:18;4.20;73.40
11647;DHT22;5880;52.342;9.662;2023-12-04T10:45:49;4.20;73.70
11647;DHT22;5880;52.342;9.662;2023-12-04T10:48:17;4.20;73.40
11647;DHT22;5880;52.342;9.662;2023-12-04T10:50:46;4.20;73.10
11647;DHT22;5880;52.342;9.662;2023-12-04T10:53:14;4.30;73.30
11647;DHT22;5880;52.342;9.662;2023-12-04T10:55:42;4.30;73.30
11647;DHT22;5880;52.342;9.662;2023-12-04T10:58:15;4.30;73.70
11647;DHT22;5880;52.342;9.662;2023-12-04T11:00:47;4.30;73.30
11647;DHT22;5880;52.342;9.662;2023-12-04T11:03:19;4.30;73.70
11647;DHT22;5880;52.342;9.662;2023-12-04T11:05:53;4.40;73.00
11647;DHT22;5880;52.342;9.662;2023-12-04T11:08:33;4.40;73.50
11647;DHT22;5880;52.342;9.662;2023-12-04T11:11:05;4.40;73.90
11647;DHT22;5880;52.342;9.662;2023-12-04T11:13:37;4.40;73.30
11647;DHT22;5880;52.342;9.662;2023-12-04T11:16:23;4.40;73.80
11647;DHT22;5880;52.342;9.662;2023-12-04T11:19:18;4.40;72.50
11647;DHT22;5880;52.342;9.662;2023-12-04T11:21:49;4.40;71.60
11647;DHT22;5880;52.342;9.662;2023-12-04T11:24:17;4.50;73.60
11647;DHT22;5880;52.342;9.662;2023-12-04T11:26:44;4.40;72.50
11647;DHT22;5880;52.342;9.662;2023-12-04T11:29:12;4.40;73.30
11647;DHT22;5880;52.342;9.662;2023-12-04T11:31:39;4.40;72.80
11647;DHT22;5880;52.342;9.662;2023-12-04T11:34:07;4.40;72.90
11647;DHT22;5880;52.342;9.662;2023-12-04T11:36:34;4.40;73.60
11647;DHT22;5880;52.342;9.662;2023-12-04T11:39:00;4.40;71.40
11647;DHT22;5880;52.342;9.662;2023-12-04T11:41:26;4.40;72.80
11647;DHT22;5880;52.342;9.662;2023-12-04T11:43:52;4.40;72.60
11647;DHT22;5880;52.342;9.662;2023-12-04T11:46:21;4.50;72.60
11647;DHT22;5880;52.342;9.662;2023-12-04T11:48:49;4.40;73.40
11647;DHT22;5880;52.342;9.662;2023-12-04T11:51:51;4.50;73.20
11647;DHT22;5880;52.342;9.662;2023-12-04T11:54:19;4.50;71.40
11647;DHT22;5880;52.342;9.662;2023-12-04T11:57:19;4.50;74.00
11647;DHT22;5880;52.342;9.662;2023-12-04T11:59:47;4.50;69.30
11647;DHT22;5880;52.342;9.662;2023-12-04T12:02:13;4.50;72.20
11647;DHT22;5880;52.342;9.662;2023-12-04T12:04:40;4.50;73.30
11647;DHT22;5880;52.342;9.662;2023-12-04T12:07:06;4.50;73.10
11647;DHT22;5880;52.342;9.662;2023-12-04T12:09:33;4.50;73.60
11647;DHT22;5880;52.342;9.662;2023-12-04T12:12:00;4.50;73.60
11647;DHT22;5880;52.342;9.662;2023-12-04T12:14:28;4.60;73.70
11647;DHT22;5880;52.342;9.662;2023-12-04T12:16:55;4.50;73.60
11647;DHT22;5880;52.342;9.662;2023-12-04T12:19:24;4.50;73.70
11647;DHT22;5880;52.342;9.662;2023-12-04T12:21:49;4.50;74.10
11647;DHT22;5880;52.342;9.662;2023-12-04T12:24:17;4.60;73.70
11647;DHT22;5880;52.342;9.662;2023-12-04T12:26:44;4.50;73.80
11647;DHT22;5880;52.342;9.662;2023-12-04T12:29:11;4.60;72.80
11647;DHT22;5880;52.342;9.662;2023-12-04T12:31:36;4.60;72.60
11647;DHT22;5880;52.342;9.662;2023-12-04T12:34:02;4.60;72.00
11647;DHT22;5880;52.342;9.662;2023-12-04T12:36:28;4.60;73.00
11647;DHT22;5880;52.342;9.662;2023-12-04T12:38:55;4.60;72.60
11647;DHT22;5880;52.342;9.662;2023-12-04T12:41:21;4.60;72.60
11647;DHT22;5880;52.342;9.662;2023-12-04T12:43:51;4.60;72.00
11647;DHT22;5880;52.342;9.662;2023-12-04T12:46:18;4.60;72.60
11647;DHT22;5880;52.342;9.662;2023-12-04T12:48:44;4.70;73.00
11647;DHT22;5880;52.342;9.662;2023-12-04T12:51:12;4.60;72.40
11647;DHT22;5880;52.342;9.662;2023-12-04T12:53:38;4.60;72.70
11647;DHT22;5880;52.342;9.662;2023-12-04T12:56:05;4.60;72.00
11647;DHT22;5880;52.342;9.662;2023-12-04T12:58:31;4.60;72.40
11647;DHT22;5880;52.342;9.662;2023-12-04T13:00:57;4.60;73.00
11647;DHT22;5880;52.342;9.662;2023-12-04T13:03:22;4.60;72.60
11647;DHT22;5880;52.342;9.662;2023-12-04T13:05:48;4.60;73.10
11647;DHT22;5880;52.342;9.662;2023-12-04T13:08:14;4.60;72.80
11647;DHT22;5880;52.342;9.662;2023-12-04T13:10:43;4.60;73.20
11647;DHT22;5880;52.342;9.662;2023-12-04T13:13:14;4.60;72.90
11647;DHT22;5880;52.342;9.662;2023-12-04T13:15:41;4.70;72.40
11647;DHT22;5880;52.342;9.662;2023-12-04T13:18:08;4.60;72.20
11647;DHT22;5880;52.342;9.662;2023-12-04T13:20:34;4.70;72.20
11647;DHT22;5880;52.342;9.662;2023-12-04T13:23:00;4.70;72.40
11647;DHT22;5880;52.342;9.662;2023-12-04T13:25:26;4.70;71.50
11647;DHT22;5880;52.342;9.662;2023-12-04T13:27:53;4.60;71.90
11647;DHT22;5880;52.342;9.662;2023-12-04T13:30:19;4.60;72.30
11647;DHT22;5880;52.342;9.662;2023-12-04T13:32:46;4.70;72.10
11647;DHT22;5880;52.342;9.662;2023-12-04T13:35:11;4.60;72.00
11647;DHT22;5880;52.342;9.662;2023-12-04T13:37:37;4.70;72.80
11647;DHT22;5880;52.342;9.662;2023-12-04T13:40:05;4.70;72.80
11647;DHT22;5880;52.342;9.662;2023-12-04T13:42:38;4.70;73.00
11647;DHT22;5880;52.342;9.662;2023-12-04T13:45:23;4.70;72.90
11647;DHT22;5880;52.342;9.662;2023-12-04T13:47:49;4.70;71.60
11647;DHT22;5880;52.342;9.662;2023-12-04T13:50:17;4.70;72.60
11647;DHT22;5880;52.342;9.662;2023-12-04T13:52:43;4.70;72.70
11647;DHT22;5880;52.342;9.662;2023-12-04T13:55:09;4.70;72.70
11647;DHT22;5880;52.342;9.662;2023-12-04T13:57:46;4.70;72.80
11647;DHT22;5880;52.342;9.662;2023-12-04T14:00:24;4.70;72.80
11647;DHT22;5880;52.342;9.662;2023-12-04T14:02:50;4.70;72.00
11647;DHT22;5880;52.342;9.662;2023-12-04T14:05:25;4.80;72.30
11647;DHT22;5880;52.342;9.662;2023-12-04T14:07:51;4.70;71.30
11647;DHT22;5880;52.342;9.662;2023-12-04T14:10:17;4.70;71.90
11647;DHT22;5880;52.342;9.662;2023-12-04T14:12:42;4.70;71.60
11647;DHT22;5880;52.342;9.662;2023-12-04T14:15:08;4.70;71.20
11647;DHT22;5880;52.342;9.662;2023-12-04T14:17:34;4.60;70.10
11647;DHT22;5880;52.342;9.662;2023-12-04T14:20:00;4.60;70.40
11647;DHT22;5880;52.342;9.662;2023-12-04T14:22:26;4.60;71.20
11647;DHT22;5880;52.342;9.662;2023-12-04T14:24:52;4.60;70.90
11647;DHT22;5880;52.342;9.662;2023-12-04T14:27:18;4.60;71.60
11647;DHT22;5880;52.342;9.662;2023-12-04T14:29:43;4.60;71.30
11647;DHT22;5880;52.342;9.662;2023-12-04T14:32:10;4.60;70.40
11647;DHT22;5880;52.342;9.662;2023-12-04T14:34:35;4.60;71.00
11647;DHT22;5880;52.342;9.662;2023-12-04T14:37:01;4.60;70.00
11647;DHT22;5880;52.342;9.662;2023-12-04T14:39:27;4.60;70.80
11647;DHT22;5880;52.342;9.662;2023-12-04T14:41:53;4.60;70.30
11647;DHT22;5880;52.342;9.662;2023-12-04T14:44:18;4.60;70.70
11647;DHT22;5880;52.342;9.662;2023-12-04T14:46:44;4.60;69.50
11647;DHT22;5880;52.342;9.662;2023-12-04T14:49:11;4.60;70.80
11647;DHT22;5880;52.342;9.662;2023-12-04T14:51:36;4.70;72.00
11647;DHT22;5880;52.342;9.662;2023-12-04T14:54:02;4.60;71.00
11647;DHT22;5880;52.342;9.662;2023-12-04T14:56:47;4.50;71.40
11647;DHT22;5880;52.342;9.662;2023-12-04T14:59:31;4.60;71.30
11647;DHT22;5880;52.342;9.662;2023-12-04T15:02:06;4.60;71.50
11647;DHT22;5880;52.342;9.662;2023-12-04T15:05:01;4.70;71.80
11647;DHT22;5880;52.342;9.662;2023-12-04T15:07:29;4.50;71.80
11647;DHT22;5880;52.342;9.662;2023-12-04T15:10:14;4.60;72.20
11647;DHT22;5880;52.342;9.662;2023-12-04T15:12:59;4.60;72.50
11647;DHT22;5880;52.342;9.662;2023-12-04T15:16:00;4.60;71.90
11647;DHT22;5880;52.342;9.662;2023-12-04T15:18:28;4.50;71.50
11647;DHT22;5880;52.342;9.662;2023-12-04T15:21:03;4.50;71.40
11647;DHT22;5880;52.342;9.662;2023-12-04T15:23:29;4.60;71.80
11647;DHT22;5880;52.342;9.662;2023-12-04T15:25:56;4.60;72.10
11647;DHT22;5880;52.342;9.662;2023-12-04T15:28:21;4.60;72.10
11647;DHT22;5880;52.342;9.662;2023-12-04T15:30:48;4.60;72.50
11647;DHT22;5880;52.342;9.662;2023-12-04T15:33:14;4.60;72.70
11647;DHT22;5880;52.342;9.662;2023-12-04T15:35:40;4.60;72.20
11647;DHT22;5880;52.342;9.662;2023-12-04T15:38:07;4.50;71.50
11647;DHT22;5880;52.342;9.662;2023-12-04T15:40:32;4.60;72.30
11647;DHT22;5880;52.342;9.662;2023-12-04T15:42:59;4.60;72.00
11647;DHT22;5880;52.342;9.662;2023-12-04T15:45:24;4.50;72.00
11647;DHT22;5880;52.342;9.662;2023-12-04T15:47:51;4.60;71.90
11647;DHT22;5880;52.342;9.662;2023-12-04T15:50:17;4.60;72.40
11647;DHT22;5880;52.342;9.662;2023-12-04T15:52:43;4.60;71.30
11647;DHT22;5880;52.342;9.662;2023-12-04T15:55:09;4.60;71.10
11647;DHT22;5880;52.342;9.662;2023-12-04T15:57:38;4.50;71.30
11647;DHT22;5880;52.342;9.662;2023-12-04T16:00:05;4.50;71.30
11647;DHT22;5880;52.342;9.662;2023-12-04T16:02:41;4.50;71.80